sensor_id;sensor_type;location;lat;lon;timestamp;pressure;altitude;pressure_sealevel;temperature;humidity
84882;BME280;75144;52.360;9.814;2023-12-29T00:01:20;99999.75;;;11.52;63.51
84882;BME280;75144;52.360;9.814;2023-12-29T00:03:45;99988.53;;;11.53;62.89
84882;BME280;75144;52.360;9.814;2023-12-29T00:06:11;99988.53;;;11.54;62.92
84882;BME280;75144;52.360;9.814;2023-12-29T00:08:36;99998.00;;;11.52;63.07
84882;BME280;75144;52.360;9.814;2023-12-29T00:11:02;99995.44;;;11.54;62.82
84882;BME280;75144;52.360;9.814;2023-12-29T00:13:27;100008.44;;;11.60;62.69
84882;BME280;75144;52.360;9.814;2023-12-29T00:15:53;99992.84;;;11.57;62.29
84882;BME280;75144;52.360;9.814;2023-12-29T00:18:18;99993.72;;;11.57;62.55
84882;BME280;75144;52.360;9.814;2023-12-29T00:20:44;99992.91;;;11.60;62.58
84882;BME280;75144;52.360;9.814;2023-12-29T00:23:09;99976.56;;;11.65;62.68
84882;BME280;75144;52.360;9.814;2023-12-29T00:25:38;99993.81;;;11.60;62.22
84882;BME280;75144;52.360;9.814;2023-12-29T00:28:06;99980.88;;;11.65;62.86
84882;BME280;75144;52.360;9.814;2023-12-29T00:30:32;99992.06;;;11.62;62.87
84882;BME280;75144;52.360;9.814;2023-12-29T00:32:57;99972.22;;;11.60;63.24
84882;BME280;75144;52.360;9.814;2023-12-29T00:35:22;99974.75;;;11.55;63.70
84882;BME280;75144;52.360;9.814;2023-12-29T00:37:49;99987.69;;;11.57;63.39
84882;BME280;75144;52.360;9.814;2023-12-29T00:40:15;99976.53;;;11.61;63.42
84882;BME280;75144;52.360;9.814;2023-12-29T00:42:40;99976.53;;;11.59;63.10
84882;BME280;75144;52.360;9.814;2023-12-29T00:45:06;99974.75;;;11.58;63.38
84882;BME280;75144;52.360;9.814;2023-12-29T00:47:31;99967.91;;;11.62;63.30
84882;BME280;75144;52.360;9.814;2023-12-29T00:49:56;99959.31;;;11.61;63.79
84882;BME280;75144;52.360;9.814;2023-12-29T00:52:21;99960.19;;;11.63;63.43
84882;BME280;75144;52.360;9.814;2023-12-29T00:54:47;99967.00;;;11.58;63.84
84882;BME280;75144;52.360;9.814;2023-12-29T00:57:12;99951.47;;;11.54;64.28
84882;BME280;75144;52.360;9.814;2023-12-29T00:59:38;99956.63;;;11.49;63.78
84882;BME280;75144;52.360;9.814;2023-12-29T01:02:06;99954.91;;;11.51;64.95
84882;BME280;75144;52.360;9.814;2023-12-29T01:04:31;99938.53;;;11.49;65.21
84882;BME280;75144;52.360;9.814;2023-12-29T01:06:57;99951.44;;;11.49;65.50
84882;BME280;75144;52.360;9.814;2023-12-29T01:09:22;99943.69;;;11.52;64.84
84882;BME280;75144;52.360;9.814;2023-12-29T01:11:47;99939.38;;;11.50;65.81
84882;BME280;75144;52.360;9.814;2023-12-29T01:14:12;99941.09;;;11.52;65.20
84882;BME280;75144;52.360;9.814;2023-12-29T01:16:38;99944.56;;;11.56;64.48
84882;BME280;75144;52.360;9.814;2023-12-29T01:19:04;99947.13;;;11.54;65.37
84882;BME280;75144;52.360;9.814;2023-12-29T01:21:29;99944.56;;;11.54;65.38
84882;BME280;75144;52.360;9.814;2023-12-29T01:23:58;99953.16;;;11.53;65.94
84882;BME280;75144;52.360;9.814;2023-12-29T01:26:23;99945.41;;;11.50;65.76
84882;BME280;75144;52.360;9.814;2023-12-29T01:28:49;99938.47;;;11.46;66.14
84882;BME280;75144;52.360;9.814;2023-12-29T01:31:14;99943.66;;;11.48;65.69
84882;BME280;75144;52.360;9.814;2023-12-29T01:33:39;99941.94;;;11.48;65.88
84882;BME280;75144;52.360;9.814;2023-12-29T01:36:05;99937.66;;;11.52;65.26
84882;BME280;75144;52.360;9.814;2023-12-29T01:38:30;99935.94;;;11.49;65.79
84882;BME280;75144;52.360;9.814;2023-12-29T01:40:56;99935.91;;;11.48;65.71
84882;BME280;75144;52.360;9.814;2023-12-29T01:43:21;99932.50;;;11.52;65.27
84882;BME280;75144;52.360;9.814;2023-12-29T01:45:46;99935.06;;;11.53;65.59
84882;BME280;75144;52.360;9.814;2023-12-29T01:48:11;99929.03;;;11.51;66.60
84882;BME280;75144;52.360;9.814;2023-12-29T01:50:37;99930.75;;;11.49;66.91
84882;BME280;75144;52.360;9.814;2023-12-29T01:53:03;99925.59;;;11.49;66.65
84882;BME280;75144;52.360;9.814;2023-12-29T01:55:29;99923.81;;;11.48;67.12
84882;BME280;75144;52.360;9.814;2023-12-29T01:57:55;99916.03;;;11.39;67.99
84882;BME280;75144;52.360;9.814;2023-12-29T02:00:20;99912.56;;;11.34;68.99
84882;BME280;75144;52.360;9.814;2023-12-29T02:02:46;99915.97;;;11.30;69.50
84882;BME280;75144;52.360;9.814;2023-12-29T02:05:14;99911.63;;;11.26;69.38
84882;BME280;75144;52.360;9.814;2023-12-29T02:07:41;99909.00;;;11.22;69.48
84882;BME280;75144;52.360;9.814;2023-12-29T02:10:06;99918.50;;;11.23;69.80
84882;BME280;75144;52.360;9.814;2023-12-29T02:12:34;99900.44;;;11.26;69.07
84882;BME280;75144;52.360;9.814;2023-12-29T02:14:59;99892.69;;;11.27;69.11
84882;BME280;75144;52.360;9.814;2023-12-29T02:17:29;99884.09;;;11.30;69.83
84882;BME280;75144;52.360;9.814;2023-12-29T02:19:56;99893.56;;;11.32;69.77
84882;BME280;75144;52.360;9.814;2023-12-29T02:22:22;99892.72;;;11.32;68.75
84882;BME280;75144;52.360;9.814;2023-12-29T02:24:48;99879.75;;;11.29;70.08
84882;BME280;75144;52.360;9.814;2023-12-29T02:32:33;99872.06;;;11.38;69.44
84882;BME280;75144;52.360;9.814;2023-12-29T02:35:02;99858.25;;;11.37;68.52
84882;BME280;75144;52.360;9.814;2023-12-29T02:37:29;99870.34;;;11.37;69.89
84882;BME280;75144;52.360;9.814;2023-12-29T02:39:59;99877.25;;;11.42;68.76
84882;BME280;75144;52.360;9.814;2023-12-29T02:42:24;99867.78;;;11.46;69.33
84882;BME280;75144;52.360;9.814;2023-12-29T02:44:49;99849.69;;;11.46;69.68
84882;BME280;75144;52.360;9.814;2023-12-29T02:47:15;99862.63;;;11.43;69.41
84882;BME280;75144;52.360;9.814;2023-12-29T02:49:42;99863.50;;;11.46;69.10
84882;BME280;75144;52.360;9.814;2023-12-29T02:52:07;99845.38;;;11.45;70.30
84882;BME280;75144;52.360;9.814;2023-12-29T02:54:32;99849.69;;;11.47;69.46
84882;BME280;75144;52.360;9.814;2023-12-29T02:56:57;99847.09;;;11.43;70.33
84882;BME280;75144;52.360;9.814;2023-12-29T02:59:22;99853.09;;;11.39;69.97
84882;BME280;75144;52.360;9.814;2023-12-29T03:01:48;99845.38;;;11.46;70.26
84882;BME280;75144;52.360;9.814;2023-12-29T03:04:13;99847.16;;;11.50;69.57
84882;BME280;75144;52.360;9.814;2023-12-29T03:06:40;99848.00;;;11.48;70.37
84882;BME280;75144;52.360;9.814;2023-12-29T03:09:05;99850.53;;;11.45;70.96
84882;BME280;75144;52.360;9.814;2023-12-29T03:11:30;99833.31;;;11.45;70.03
84882;BME280;75144;52.360;9.814;2023-12-29T03:13:57;99843.66;;;11.45;70.09
84882;BME280;75144;52.360;9.814;2023-12-29T03:16:22;99840.22;;;11.46;70.45
84882;BME280;75144;52.360;9.814;2023-12-29T03:18:47;99842.78;;;11.45;70.62
84882;BME280;75144;52.360;9.814;2023-12-29T03:21:12;99851.47;;;11.53;70.56
84882;BME280;75144;52.360;9.814;2023-12-29T03:23:38;99827.31;;;11.54;70.29
84882;BME280;75144;52.360;9.814;2023-12-29T03:26:03;99813.53;;;11.52;70.84
84882;BME280;75144;52.360;9.814;2023-12-29T03:28:29;99796.25;;;11.51;70.71
84882;BME280;75144;52.360;9.814;2023-12-29T03:30:54;99810.09;;;11.53;70.51
84882;BME280;75144;52.360;9.814;2023-12-29T03:33:19;99812.66;;;11.53;70.24
84882;BME280;75144;52.360;9.814;2023-12-29T03:35:45;99811.88;;;11.60;69.36
84882;BME280;75144;52.360;9.814;2023-12-29T03:38:10;99807.56;;;11.59;69.70
84882;BME280;75144;52.360;9.814;2023-12-29T03:40:35;99819.63;;;11.60;69.64
84882;BME280;75144;52.360;9.814;2023-12-29T03:43:00;99805.84;;;11.64;68.63
84882;BME280;75144;52.360;9.814;2023-12-29T03:45:26;99818.75;;;11.59;69.33
84882;BME280;75144;52.360;9.814;2023-12-29T03:47:51;99798.88;;;11.58;69.36
84882;BME280;75144;52.360;9.814;2023-12-29T03:50:16;99818.78;;;11.62;67.99
84882;BME280;75144;52.360;9.814;2023-12-29T03:52:41;99816.22;;;11.71;67.68
84882;BME280;75144;52.360;9.814;2023-12-29T03:55:07;99823.13;;;11.71;67.08
84882;BME280;75144;52.360;9.814;2023-12-29T03:57:32;99828.28;;;11.75;67.29
84882;BME280;75144;52.360;9.814;2023-12-29T03:59:57;99817.06;;;11.72;66.75
84882;BME280;75144;52.360;9.814;2023-12-29T04:02:22;99814.47;;;11.66;67.71
84882;BME280;75144;52.360;9.814;2023-12-29T04:04:48;99804.06;;;11.54;68.12
84882;BME280;75144;52.360;9.814;2023-12-29T04:07:13;99801.47;;;11.49;69.43
84882;BME280;75144;52.360;9.814;2023-12-29T04:09:38;99805.72;;;11.43;69.74
84882;BME280;75144;52.360;9.814;2023-12-29T04:12:04;99805.72;;;11.41;69.95
84882;BME280;75144;52.360;9.814;2023-12-29T04:14:29;99785.00;;;11.40;69.92
84882;BME280;75144;52.360;9.814;2023-12-29T04:16:54;99764.31;;;11.34;70.84
84882;BME280;75144;52.360;9.814;2023-12-29T04:19:19;99766.03;;;11.27;71.67
84882;BME280;75144;52.360;9.814;2023-12-29T04:21:45;99789.25;;;11.24;72.17
84882;BME280;75144;52.360;9.814;2023-12-29T04:24:10;99793.53;;;11.18;72.43
84882;BME280;75144;52.360;9.814;2023-12-29T04:26:36;99814.16;;;11.12;73.50
84882;BME280;75144;52.360;9.814;2023-12-29T04:29:02;99799.50;;;11.09;74.34
84882;BME280;75144;52.360;9.814;2023-12-29T04:31:27;99802.94;;;11.07;73.29
84882;BME280;75144;52.360;9.814;2023-12-29T04:33:52;99809.84;;;11.09;73.21
84882;BME280;75144;52.360;9.814;2023-12-29T04:36:17;99810.72;;;11.10;72.99
84882;BME280;75144;52.360;9.814;2023-12-29T04:38:42;99808.09;;;11.07;73.23
84882;BME280;75144;52.360;9.814;2023-12-29T04:41:08;99811.59;;;11.10;73.10
84882;BME280;75144;52.360;9.814;2023-12-29T04:43:33;99793.50;;;11.13;73.30
84882;BME280;75144;52.360;9.814;2023-12-29T04:45:58;99802.13;;;11.08;72.78
84882;BME280;75144;52.360;9.814;2023-12-29T04:48:23;99802.97;;;11.10;72.68
84882;BME280;75144;52.360;9.814;2023-12-29T04:50:49;99796.09;;;11.09;72.58
84882;BME280;75144;52.360;9.814;2023-12-29T04:53:14;99815.03;;;11.06;72.48
84882;BME280;75144;52.360;9.814;2023-12-29T04:55:39;99817.59;;;11.06;72.42
84882;BME280;75144;52.360;9.814;2023-12-29T04:58:05;99805.53;;;11.07;72.84
84882;BME280;75144;52.360;9.814;2023-12-29T05:00:30;99790.91;;;11.12;72.69
84882;BME280;75144;52.360;9.814;2023-12-29T05:02:55;99815.88;;;11.05;73.72
84882;BME280;75144;52.360;9.814;2023-12-29T05:05:20;99803.75;;;10.98;74.89
84882;BME280;75144;52.360;9.814;2023-12-29T05:07:46;99803.72;;;10.92;75.17
84882;BME280;75144;52.360;9.814;2023-12-29T05:10:11;99820.97;;;10.92;75.44
84882;BME280;75144;52.360;9.814;2023-12-29T05:12:36;99816.63;;;10.92;75.22
84882;BME280;75144;52.360;9.814;2023-12-29T05:15:01;99816.63;;;10.88;75.76
84882;BME280;75144;52.360;9.814;2023-12-29T05:17:27;99820.09;;;10.93;75.17
84882;BME280;75144;52.360;9.814;2023-12-29T05:19:52;99823.53;;;10.90;76.13
84882;BME280;75144;52.360;9.814;2023-12-29T05:22:17;99821.81;;;10.92;75.29
84882;BME280;75144;52.360;9.814;2023-12-29T05:24:43;99814.91;;;10.88;76.29
84882;BME280;75144;52.360;9.814;2023-12-29T05:27:08;99820.91;;;10.87;76.21
84882;BME280;75144;52.360;9.814;2023-12-29T05:29:33;99812.28;;;10.85;77.13
84882;BME280;75144;52.360;9.814;2023-12-29T05:31:59;99816.56;;;10.80;77.65
84882;BME280;75144;52.360;9.814;2023-12-29T05:34:24;99836.41;;;10.84;77.82
84882;BME280;75144;52.360;9.814;2023-12-29T05:36:49;99815.75;;;10.87;77.88
84882;BME280;75144;52.360;9.814;2023-12-29T05:39:14;99813.22;;;10.92;77.78
84882;BME280;75144;52.360;9.814;2023-12-29T05:41:40;99808.03;;;10.95;76.99
84882;BME280;75144;52.360;9.814;2023-12-29T05:44:05;99803.75;;;10.95;77.57
84882;BME280;75144;52.360;9.814;2023-12-29T05:46:30;99806.34;;;11.00;77.50
84882;BME280;75144;52.360;9.814;2023-12-29T05:48:55;99802.09;;;11.02;77.08
84882;BME280;75144;52.360;9.814;2023-12-29T05:51:21;99811.53;;;11.00;78.16
84882;BME280;75144;52.360;9.814;2023-12-29T05:53:47;99807.16;;;10.91;79.03
84882;BME280;75144;52.360;9.814;2023-12-29T05:56:12;99808.88;;;10.88;79.31
84882;BME280;75144;52.360;9.814;2023-12-29T05:58:38;99810.59;;;10.90;79.21
84882;BME280;75144;52.360;9.814;2023-12-29T06:01:05;99804.56;;;10.90;79.49
84882;BME280;75144;52.360;9.814;2023-12-29T06:03:30;99791.66;;;10.90;79.16
84882;BME280;75144;52.360;9.814;2023-12-29T06:05:55;99810.59;;;10.93;78.70
84882;BME280;75144;52.360;9.814;2023-12-29T06:08:21;99806.34;;;10.97;78.62
84882;BME280;75144;52.360;9.814;2023-12-29T06:10:46;99814.09;;;10.97;78.10
84882;BME280;75144;52.360;9.814;2023-12-29T06:13:11;99814.09;;;10.98;78.47
84882;BME280;75144;52.360;9.814;2023-12-29T06:15:37;99809.78;;;10.99;77.29
84882;BME280;75144;52.360;9.814;2023-12-29T06:18:04;99816.69;;;11.00;77.73
84882;BME280;75144;52.360;9.814;2023-12-29T06:20:29;99826.19;;;11.02;77.17
84882;BME280;75144;52.360;9.814;2023-12-29T06:22:55;99820.13;;;10.97;79.23
84882;BME280;75144;52.360;9.814;2023-12-29T06:25:20;99809.72;;;10.87;79.88
84882;BME280;75144;52.360;9.814;2023-12-29T06:27:45;99815.69;;;10.81;80.05
84882;BME280;75144;52.360;9.814;2023-12-29T06:32:41;99820.81;;;10.74;81.41
84882;BME280;75144;52.360;9.814;2023-12-29T06:35:07;99825.94;;;10.69;81.25
84882;BME280;75144;52.360;9.814;2023-12-29T06:37:39;99817.28;;;10.64;82.12
84882;BME280;75144;52.360;9.814;2023-12-29T06:40:06;99818.16;;;10.63;81.73
84882;BME280;75144;52.360;9.814;2023-12-29T06:42:32;99819.03;;;10.65;81.07
84882;BME280;75144;52.360;9.814;2023-12-29T06:44:57;99812.16;;;10.66;80.99
84882;BME280;75144;52.360;9.814;2023-12-29T06:47:23;99819.94;;;10.70;80.26
84882;BME280;75144;52.360;9.814;2023-12-29T06:49:51;99802.78;;;10.78;80.33
84882;BME280;75144;52.360;9.814;2023-12-29T06:52:25;99795.03;;;10.81;78.55
84882;BME280;75144;52.360;9.814;2023-12-29T06:55:17;99795.09;;;10.90;77.89
84882;BME280;75144;52.360;9.814;2023-12-29T06:57:43;99814.06;;;10.92;78.19
84882;BME280;75144;52.360;9.814;2023-12-29T07:00:08;99812.38;;;10.99;77.58
84882;BME280;75144;52.360;9.814;2023-12-29T07:02:37;99809.84;;;11.05;76.24
84882;BME280;75144;52.360;9.814;2023-12-29T07:05:06;99812.44;;;11.06;76.04
84882;BME280;75144;52.360;9.814;2023-12-29T07:07:57;99801.31;;;11.16;75.63
84882;BME280;75144;52.360;9.814;2023-12-29T07:10:26;99823.69;;;11.20;74.69
84882;BME280;75144;52.360;9.814;2023-12-29T07:12:51;99811.66;;;11.24;74.10
84882;BME280;75144;52.360;9.814;2023-12-29T07:15:16;99817.75;;;11.35;73.44
84882;BME280;75144;52.360;9.814;2023-12-29T07:17:44;99823.78;;;11.35;73.30
84882;BME280;75144;52.360;9.814;2023-12-29T07:20:10;99832.41;;;11.36;73.37
84882;BME280;75144;52.360;9.814;2023-12-29T07:22:35;99812.59;;;11.36;72.44
84882;BME280;75144;52.360;9.814;2023-12-29T07:25:00;99829.84;;;11.39;73.35
84882;BME280;75144;52.360;9.814;2023-12-29T07:27:25;99847.94;;;11.39;72.62
84882;BME280;75144;52.360;9.814;2023-12-29T07:29:52;99830.66;;;11.35;74.50
84882;BME280;75144;52.360;9.814;2023-12-29T07:32:17;99835.00;;;11.37;72.81
84882;BME280;75144;52.360;9.814;2023-12-29T07:34:42;99833.28;;;11.38;72.80
84882;BME280;75144;52.360;9.814;2023-12-29T07:37:09;99825.56;;;11.41;72.55
84882;BME280;75144;52.360;9.814;2023-12-29T07:39:36;99823.81;;;11.41;71.63
84882;BME280;75144;52.360;9.814;2023-12-29T07:42:01;99823.88;;;11.50;71.90
84882;BME280;75144;52.360;9.814;2023-12-29T07:44:26;99826.53;;;11.67;72.25
84882;BME280;75144;52.360;9.814;2023-12-29T07:46:52;99836.00;;;11.62;70.96
84882;BME280;75144;52.360;9.814;2023-12-29T07:49:17;99856.69;;;11.59;70.78
84882;BME280;75144;52.360;9.814;2023-12-29T07:51:44;99847.13;;;11.53;71.26
84882;BME280;75144;52.360;9.814;2023-12-29T07:54:10;99857.50;;;11.52;71.50
84882;BME280;75144;52.360;9.814;2023-12-29T07:56:36;99849.75;;;11.56;71.03
84882;BME280;75144;52.360;9.814;2023-12-29T07:59:03;99848.03;;;11.55;70.88
84882;BME280;75144;52.360;9.814;2023-12-29T08:01:28;99855.75;;;11.52;70.96
84882;BME280;75144;52.360;9.814;2023-12-29T08:03:54;99859.19;;;11.50;71.26
84882;BME280;75144;52.360;9.814;2023-12-29T08:06:19;99863.50;;;11.46;71.68
84882;BME280;75144;52.360;9.814;2023-12-29T08:08:44;99871.28;;;11.54;70.29
84882;BME280;75144;52.360;9.814;2023-12-29T08:11:14;99861.81;;;11.56;70.25
84882;BME280;75144;52.360;9.814;2023-12-29T08:13:40;99862.69;;;11.52;70.75
84882;BME280;75144;52.360;9.814;2023-12-29T08:16:05;99880.78;;;11.56;70.29
84882;BME280;75144;52.360;9.814;2023-12-29T08:18:32;99875.69;;;11.64;69.22
84882;BME280;75144;52.360;9.814;2023-12-29T08:20:57;99864.47;;;11.60;69.14
84882;BME280;75144;52.360;9.814;2023-12-29T08:23:24;99866.19;;;11.61;69.87
84882;BME280;75144;52.360;9.814;2023-12-29T08:25:51;99868.78;;;11.60;68.75
84882;BME280;75144;52.360;9.814;2023-12-29T08:28:16;99872.22;;;11.60;69.75
84882;BME280;75144;52.360;9.814;2023-12-29T08:30:42;99891.16;;;11.59;69.45
84882;BME280;75144;52.360;9.814;2023-12-29T08:33:07;99889.47;;;11.64;68.34
84882;BME280;75144;52.360;9.814;2023-12-29T08:35:32;99872.22;;;11.62;68.79
84882;BME280;75144;52.360;9.814;2023-12-29T08:37:57;99873.09;;;11.62;68.81
84882;BME280;75144;52.360;9.814;2023-12-29T08:40:23;99873.94;;;11.64;69.05
84882;BME280;75144;52.360;9.814;2023-12-29T08:42:48;99880.84;;;11.65;68.31
84882;BME280;75144;52.360;9.814;2023-12-29T08:45:13;99880.00;;;11.69;68.33
84882;BME280;75144;52.360;9.814;2023-12-29T08:47:38;99876.56;;;11.67;69.09
84882;BME280;75144;52.360;9.814;2023-12-29T08:50:04;99861.88;;;11.63;69.07
84882;BME280;75144;52.360;9.814;2023-12-29T08:52:29;99867.97;;;11.70;67.26
84882;BME280;75144;52.360;9.814;2023-12-29T08:54:55;99869.69;;;11.72;67.63
84882;BME280;75144;52.360;9.814;2023-12-29T08:57:20;99859.31;;;11.69;68.48
84882;BME280;75144;52.360;9.814;2023-12-29T08:59:45;99862.78;;;11.71;67.41
84882;BME280;75144;52.360;9.814;2023-12-29T09:02:10;99850.72;;;11.73;67.79
84882;BME280;75144;52.360;9.814;2023-12-29T09:04:36;99838.66;;;11.75;67.68
84882;BME280;75144;52.360;9.814;2023-12-29T09:07:19;99849.00;;;11.75;67.00
84882;BME280;75144;52.360;9.814;2023-12-29T09:30:33;99860.22;;;11.85;67.21
84882;BME280;75144;52.360;9.814;2023-12-29T09:32:58;99863.66;;;11.82;67.42
84882;BME280;75144;52.360;9.814;2023-12-29T09:35:23;99865.44;;;11.83;67.61
84882;BME280;75144;52.360;9.814;2023-12-29T09:37:49;99879.19;;;11.78;68.35
84882;BME280;75144;52.360;9.814;2023-12-29T09:40:15;99860.19;;;11.73;70.01
84882;BME280;75144;52.360;9.814;2023-12-29T09:42:42;99870.50;;;11.62;70.80
84882;BME280;75144;52.360;9.814;2023-12-29T09:45:10;99885.91;;;11.49;72.10
84882;BME280;75144;52.360;9.814;2023-12-29T09:47:39;99893.59;;;11.35;73.30
84882;BME280;75144;52.360;9.814;2023-12-29T09:50:06;99882.34;;;11.27;75.48
84882;BME280;75144;52.360;9.814;2023-12-29T09:52:32;99888.31;;;11.17;75.87
84882;BME280;75144;52.360;9.814;2023-12-29T09:54:59;99891.72;;;11.12;75.58
84882;BME280;75144;52.360;9.814;2023-12-29T09:57:24;99893.41;;;11.08;76.01
84882;BME280;75144;52.360;9.814;2023-12-29T09:59:50;99907.97;;;10.97;75.80
84882;BME280;75144;52.360;9.814;2023-12-29T10:02:20;99915.59;;;10.84;77.05
84882;BME280;75144;52.360;9.814;2023-12-29T10:04:47;99890.50;;;10.66;78.45
84882;BME280;75144;52.360;9.814;2023-12-29T10:07:39;99891.25;;;10.55;78.48
84882;BME280;75144;52.360;9.814;2023-12-29T10:10:06;99890.25;;;10.39;81.20
84882;BME280;75144;52.360;9.814;2023-12-29T10:12:32;99888.41;;;10.29;82.25
84882;BME280;75144;52.360;9.814;2023-12-29T10:18:22;99870.19;;;10.14;81.88
84882;BME280;75144;52.360;9.814;2023-12-29T10:20:47;99879.63;;;10.12;82.71
84882;BME280;75144;52.360;9.814;2023-12-29T10:25:59;99860.81;;;10.21;83.17
84882;BME280;75144;52.360;9.814;2023-12-29T10:28:25;99866.84;;;10.21;83.02
84882;BME280;75144;52.360;9.814;2023-12-29T10:30:50;99863.41;;;10.25;82.53
84882;BME280;75144;52.360;9.814;2023-12-29T10:33:19;99884.06;;;10.25;83.87
84882;BME280;75144;52.360;9.814;2023-12-29T10:36:06;99889.22;;;10.25;84.46
84882;BME280;75144;52.360;9.814;2023-12-29T10:38:35;99883.16;;;10.19;86.02
84882;BME280;75144;52.360;9.814;2023-12-29T10:41:15;99883.94;;;10.10;88.09
84882;BME280;75144;52.360;9.814;2023-12-29T10:43:54;99871.91;;;10.15;89.33
84882;BME280;75144;52.360;9.814;2023-12-29T10:46:40;99862.44;;;10.11;87.90
84882;BME280;75144;52.360;9.814;2023-12-29T10:49:12;99869.22;;;10.05;87.80
84882;BME280;75144;52.360;9.814;2023-12-29T10:51:39;99871.84;;;10.08;88.73
84882;BME280;75144;52.360;9.814;2023-12-29T10:54:07;99866.72;;;10.11;87.83
84882;BME280;75144;52.360;9.814;2023-12-29T10:56:34;99861.59;;;10.14;88.52
84882;BME280;75144;52.360;9.814;2023-12-29T10:59:41;99856.50;;;10.20;88.12
84882;BME280;75144;52.360;9.814;2023-12-29T11:02:12;99847.97;;;10.27;86.86
84882;BME280;75144;52.360;9.814;2023-12-29T11:04:39;99842.00;;;10.35;85.53
84882;BME280;75144;52.360;9.814;2023-12-29T11:07:07;99829.16;;;10.41;85.35
84882;BME280;75144;52.360;9.814;2023-12-29T11:09:33;99835.25;;;10.48;84.32
84882;BME280;75144;52.360;9.814;2023-12-29T11:12:03;99838.72;;;10.51;84.37
84882;BME280;75144;52.360;9.814;2023-12-29T11:14:32;99813.84;;;10.62;83.39
84882;BME280;75144;52.360;9.814;2023-12-29T11:16:58;99819.91;;;10.63;84.89
84882;BME280;75144;52.360;9.814;2023-12-29T11:19:25;99828.56;;;10.71;81.96
84882;BME280;75144;52.360;9.814;2023-12-29T11:21:57;99808.78;;;10.74;82.73
84882;BME280;75144;52.360;9.814;2023-12-29T11:24:23;99811.41;;;10.82;81.51
84882;BME280;75144;52.360;9.814;2023-12-29T11:26:49;99808.88;;;10.89;81.13
84882;BME280;75144;52.360;9.814;2023-12-29T11:29:16;99817.53;;;10.97;80.71
84882;BME280;75144;52.360;9.814;2023-12-29T11:31:42;99817.56;;;10.99;81.11
84882;BME280;75144;52.360;9.814;2023-12-29T11:34:31;99813.28;;;11.05;79.11
84882;BME280;75144;52.360;9.814;2023-12-29T11:37:11;99805.53;;;11.08;80.10
84882;BME280;75144;52.360;9.814;2023-12-29T11:39:52;99810.75;;;11.11;79.51
84882;BME280;75144;52.360;9.814;2023-12-29T11:42:29;99803.00;;;11.16;78.81
84882;BME280;75144;52.360;9.814;2023-12-29T11:44:56;99808.22;;;11.26;78.31
84882;BME280;75144;52.360;9.814;2023-12-29T11:47:34;99810.84;;;11.34;77.01
84882;BME280;75144;52.360;9.814;2023-12-29T11:50:00;99805.69;;;11.34;77.85
84882;BME280;75144;52.360;9.814;2023-12-29T11:52:36;99810.88;;;11.38;76.36
84882;BME280;75144;52.360;9.814;2023-12-29T11:55:14;99816.03;;;11.37;78.45
84882;BME280;75144;52.360;9.814;2023-12-29T11:57:40;99805.72;;;11.37;77.36
84882;BME280;75144;52.360;9.814;2023-12-29T12:00:07;99816.91;;;11.39;77.93
84882;BME280;75144;52.360;9.814;2023-12-29T12:02:33;99811.75;;;11.43;76.65
84882;BME280;75144;52.360;9.814;2023-12-29T12:04:58;99811.78;;;11.46;76.39
84882;BME280;75144;52.360;9.814;2023-12-29T12:13:20;99794.63;;;11.59;75.59
84882;BME280;75144;52.360;9.814;2023-12-29T12:22:33;99787.75;;;11.74;74.13
84882;BME280;75144;52.360;9.814;2023-12-29T12:25:29;99796.38;;;11.69;74.51
84882;BME280;75144;52.360;9.814;2023-12-29T12:27:57;99817.94;;;11.69;74.95
84882;BME280;75144;52.360;9.814;2023-12-29T12:30:22;99805.88;;;11.71;75.20
84882;BME280;75144;52.360;9.814;2023-12-29T12:33:07;99801.56;;;11.67;74.67
84882;BME280;75144;52.360;9.814;2023-12-29T12:35:42;99817.03;;;11.64;75.01
84882;BME280;75144;52.360;9.814;2023-12-29T12:38:13;99815.31;;;11.62;76.07
84882;BME280;75144;52.360;9.814;2023-12-29T12:40:39;99814.38;;;11.57;78.96
84882;BME280;75144;52.360;9.814;2023-12-29T12:43:05;99812.66;;;11.50;78.42
84882;BME280;75144;52.360;9.814;2023-12-29T12:45:34;99810.00;;;11.36;79.64
84882;BME280;75144;52.360;9.814;2023-12-29T12:48:03;99803.09;;;11.31;79.99
84882;BME280;75144;52.360;9.814;2023-12-29T12:50:34;99797.91;;;11.34;79.64
84882;BME280;75144;52.360;9.814;2023-12-29T12:53:00;99800.50;;;11.29;79.59
84882;BME280;75144;52.360;9.814;2023-12-29T12:55:31;99801.38;;;11.33;79.30
84882;BME280;75144;52.360;9.814;2023-12-29T12:57:59;99804.81;;;11.36;78.90
84882;BME280;75144;52.360;9.814;2023-12-29T13:00:24;99804.88;;;11.45;77.92
84882;BME280;75144;52.360;9.814;2023-12-29T13:02:49;99807.50;;;11.51;76.83
84882;BME280;75144;52.360;9.814;2023-12-29T13:05:16;99806.63;;;11.54;76.82
84882;BME280;75144;52.360;9.814;2023-12-29T13:07:41;99811.81;;;11.49;76.98
84882;BME280;75144;52.360;9.814;2023-12-29T13:10:07;99809.22;;;11.52;76.60
84882;BME280;75144;52.360;9.814;2023-12-29T13:12:34;99809.22;;;11.57;76.61
84882;BME280;75144;52.360;9.814;2023-12-29T13:15:06;99794.63;;;11.59;75.95
84882;BME280;75144;52.360;9.814;2023-12-29T13:17:33;99790.34;;;11.64;75.20
84882;BME280;75144;52.360;9.814;2023-12-29T13:19:58;99792.91;;;11.64;75.85
84882;BME280;75144;52.360;9.814;2023-12-29T13:22:24;99803.28;;;11.68;75.84
84882;BME280;75144;52.360;9.814;2023-12-29T13:24:49;99796.38;;;11.69;75.58
84882;BME280;75144;52.360;9.814;2023-12-29T13:27:15;99807.59;;;11.72;74.39
84882;BME280;75144;52.360;9.814;2023-12-29T13:29:41;99815.38;;;11.78;74.58
84882;BME280;75144;52.360;9.814;2023-12-29T13:32:16;99818.81;;;11.79;74.56
84882;BME280;75144;52.360;9.814;2023-12-29T13:34:54;99821.41;;;11.80;74.35
84882;BME280;75144;52.360;9.814;2023-12-29T13:37:30;99815.38;;;11.78;73.79
84882;BME280;75144;52.360;9.814;2023-12-29T13:39:57;99787.78;;;11.76;73.83
84882;BME280;75144;52.360;9.814;2023-12-29T13:42:24;99789.50;;;11.83;74.20
84882;BME280;75144;52.360;9.814;2023-12-29T13:44:53;99791.22;;;11.82;74.13
84882;BME280;75144;52.360;9.814;2023-12-29T13:47:20;99792.09;;;11.81;73.62